createdAt,value
2017-04-27T00:00:58.926Z,86.74
2017-04-27T00:02:01.132Z,87.21
2017-04-27T00:03:03.375Z,86.65
2017-04-27T00:04:04.794Z,86.46
2017-04-27T00:05:07.032Z,85.99
2017-04-27T00:06:09.328Z,85.65
2017-04-27T00:07:10.751Z,84.23
2017-04-27T00:08:13.136Z,84.28
2017-04-27T00:09:14.548Z,85.32
2017-04-27T00:10:16.536Z,84.66
2017-04-27T00:11:18.675Z,84.47
2017-04-27T00:12:20.837Z,83.85
2017-04-27T00:13:22.257Z,82.81
2017-04-27T00:14:24.438Z,83.00
2017-04-27T00:15:25.865Z,83.09
2017-04-27T00:16:28.029Z,83.43
2017-04-27T00:17:30.128Z,84.47
2017-04-27T00:18:32.088Z,84.00
2017-04-27T00:20:34.901Z,84.37
2017-04-27T00:21:36.325Z,84.28
2017-04-27T00:22:38.433Z,84.19
2017-04-27T00:23:40.485Z,84.47
2017-04-27T00:24:42.481Z,85.13
2017-04-27T00:25:43.896Z,84.28
2017-04-27T00:26:45.322Z,84.47
2017-04-27T00:27:46.735Z,84.32
2017-04-27T00:28:48.686Z,83.71
2017-04-27T00:29:50.100Z,82.14
2017-04-27T00:30:51.516Z,82.14
2017-04-27T00:31:52.925Z,82.14
2017-04-27T00:32:55.162Z,82.39
2017-04-27T00:33:57.365Z,82.39
2017-04-27T00:34:58.777Z,82.90
2017-04-27T00:36:00.970Z,81.38
2017-04-27T00:37:03.166Z,80.63
2017-04-27T00:38:05.163Z,80.91
2017-04-27T00:39:07.162Z,80.96
2017-04-27T00:40:09.162Z,81.01
2017-04-27T00:41:11.160Z,80.34
2017-04-27T00:42:13.431Z,80.44
2017-04-27T00:43:15.663Z,80.44
2017-04-27T00:44:17.820Z,79.96
2017-04-27T00:45:19.824Z,80.49
2017-04-27T00:46:21.861Z,81.53
2017-04-27T00:47:23.279Z,82.20
2017-04-27T00:48:25.508Z,82.67
2017-04-27T00:49:27.598Z,83.33
2017-04-27T00:50:29.549Z,82.95
2017-04-27T00:51:31.562Z,83.14
2017-04-27T00:52:33.614Z,83.33
2017-04-27T00:53:35.681Z,83.14
2017-04-27T00:54:39.393Z,83.81
2017-04-27T00:55:41.639Z,84.00
2017-04-27T00:56:43.734Z,84.47
2017-04-27T00:57:45.148Z,85.13
2017-04-27T00:58:47.102Z,84.75
2017-04-27T00:59:47.955Z,84.94
2017-04-27T01:00:50.290Z,84.61
2017-04-27T01:01:51.710Z,84.66
2017-04-27T01:02:53.643Z,84.28
2017-04-27T01:03:55.057Z,84.28
2017-04-27T01:04:56.481Z,83.62
2017-04-27T01:05:57.895Z,82.95
2017-04-27T01:06:59.310Z,82.01
2017-04-27T01:08:01.434Z,82.01
2017-04-27T01:09:03.707Z,82.20
2017-04-27T01:10:05.832Z,82.57
2017-04-27T01:11:07.252Z,82.48
2017-04-27T01:12:09.621Z,84.05
2017-04-27T01:13:11.035Z,85.04
2017-04-27T01:14:13.052Z,84.56
2017-04-27T01:15:15.114Z,84.19
2017-04-27T01:16:17.221Z,84.28
2017-04-27T01:17:19.275Z,83.52
2017-04-27T01:18:21.276Z,84.00
2017-04-27T01:19:23.319Z,83.24
2017-04-27T01:20:25.518Z,82.86
2017-04-27T01:21:27.531Z,82.86
2017-04-27T01:22:28.949Z,82.57
2017-04-27T01:23:30.370Z,81.63
2017-04-27T01:24:31.778Z,82.20
2017-04-27T01:25:33.194Z,82.10
2017-04-27T01:26:34.599Z,80.87
2017-04-27T01:27:36.015Z,82.10
2017-04-27T01:28:37.430Z,81.53
2017-04-27T01:29:39.647Z,81.53
2017-04-27T01:30:41.060Z,82.86
2017-04-27T01:31:42.471Z,83.05
2017-04-27T01:32:43.886Z,83.14
2017-04-27T01:33:45.291Z,82.76
2017-04-27T01:34:46.703Z,82.20
2017-04-27T01:35:48.118Z,82.57
2017-04-27T01:36:49.528Z,83.62
2017-04-27T01:37:50.940Z,83.67
2017-04-27T01:38:52.350Z,84.28
2017-04-27T01:39:53.764Z,84.23
2017-04-27T01:40:55.175Z,84.23
2017-04-27T01:41:56.587Z,84.23
2017-04-27T01:42:58.002Z,84.61
2017-04-27T01:43:59.425Z,85.19
2017-04-27T01:45:00.842Z,84.90
2017-04-27T01:46:02.253Z,84.90
2017-04-27T01:47:04.201Z,84.52
2017-04-27T01:48:05.614Z,84.42
2017-04-27T01:49:07.639Z,84.42
2017-04-27T01:50:09.082Z,84.33
2017-04-27T01:51:10.505Z,84.14
2017-04-27T01:52:11.913Z,84.42
2017-04-27T01:53:13.328Z,84.23
2017-04-27T01:54:15.246Z,84.28
2017-04-27T01:55:16.656Z,83.33
2017-04-27T01:56:18.066Z,83.05
2017-04-27T01:57:19.475Z,82.10
2017-04-27T01:58:20.892Z,82.91
2017-04-27T01:59:25.369Z,83.58
2017-04-27T02:00:26.784Z,84.14
2017-04-27T02:01:29.129Z,84.90
2017-04-27T02:02:30.539Z,84.81
2017-04-27T02:03:31.950Z,85.09
2017-04-27T02:04:33.362Z,85.66
2017-04-27T02:05:34.773Z,85.75
2017-04-27T02:06:36.187Z,85.66
2017-04-27T02:07:37.597Z,85.19
2017-04-27T02:08:39.845Z,83.81
2017-04-27T02:09:41.262Z,83.43
2017-04-27T02:10:42.677Z,82.57
2017-04-27T02:11:44.093Z,82.39
2017-04-27T02:12:45.502Z,83.01
2017-04-27T02:13:46.980Z,84.42
2017-04-27T02:14:48.393Z,84.42
2017-04-27T02:15:49.802Z,84.23
2017-04-27T02:16:51.209Z,84.23
2017-04-27T02:17:52.623Z,85.09
2017-04-27T02:18:54.034Z,85.66
2017-04-27T02:19:55.443Z,86.32
2017-04-27T02:20:56.861Z,85.94
2017-04-27T02:21:58.268Z,86.89
2017-04-27T02:23:00.279Z,87.17
2017-04-27T02:24:01.691Z,86.79
2017-04-27T02:25:03.103Z,86.04
2017-04-27T02:26:04.519Z,85.94
2017-04-27T02:27:05.925Z,85.66
2017-04-27T02:28:08.101Z,86.04
2017-04-27T02:29:09.510Z,85.28
2017-04-27T02:30:10.921Z,85.00
2017-04-27T02:31:12.330Z,85.75
2017-04-27T02:32:13.747Z,85.57
2017-04-27T02:33:15.165Z,84.94
2017-04-27T02:34:16.572Z,84.37
2017-04-27T02:35:17.983Z,82.76
2017-04-27T02:36:19.400Z,83.05
2017-04-27T02:37:20.812Z,82.95
2017-04-27T02:38:22.230Z,83.14
2017-04-27T02:39:23.637Z,83.33
2017-04-27T02:40:25.051Z,83.33
2017-04-27T02:41:27.243Z,83.67
2017-04-27T02:42:27.820Z,83.58
2017-04-27T02:43:29.238Z,84.05
2017-04-27T02:44:30.654Z,85.47
2017-04-27T02:45:32.064Z,85.94
2017-04-27T02:46:33.472Z,85.57
2017-04-27T02:47:34.883Z,86.13
2017-04-27T02:48:36.293Z,86.70
2017-04-27T02:49:37.704Z,86.04
2017-04-27T02:50:39.111Z,86.22
2017-04-27T02:51:40.525Z,86.51
2017-04-27T02:52:41.935Z,86.60
2017-04-27T02:53:43.344Z,85.61
2017-04-27T02:54:44.770Z,85.66
2017-04-27T02:55:46.181Z,85.80
2017-04-27T02:56:47.590Z,86.08
2017-04-27T02:57:48.999Z,85.04
2017-04-27T02:58:50.409Z,84.09
2017-04-27T02:59:51.824Z,84.00
2017-04-27T03:00:53.229Z,84.28
2017-04-27T03:01:54.646Z,84.94
2017-04-27T03:02:56.058Z,84.85
2017-04-27T03:03:57.468Z,85.61
2017-04-27T03:04:58.885Z,84.66
2017-04-27T03:06:00.292Z,83.71
2017-04-27T03:07:01.701Z,85.42
2017-04-27T03:08:03.118Z,85.42
2017-04-27T03:09:04.540Z,85.75
2017-04-27T03:10:05.958Z,86.32
2017-04-27T03:11:07.372Z,86.51
2017-04-27T03:12:08.779Z,86.98
2017-04-27T03:13:10.191Z,87.65
2017-04-27T03:14:11.601Z,87.46
2017-04-27T03:15:13.015Z,86.93
2017-04-27T03:16:14.420Z,85.99
2017-04-27T03:17:15.831Z,85.42
2017-04-27T03:18:17.242Z,85.13
2017-04-27T03:19:18.658Z,84.75
2017-04-27T03:20:20.072Z,85.23
2017-04-27T03:21:21.480Z,85.61
2017-04-27T03:22:22.891Z,85.42
2017-04-27T03:23:24.299Z,85.04
2017-04-27T03:24:25.718Z,84.09
2017-04-27T03:25:27.135Z,84.85
2017-04-27T03:26:28.602Z,86.08
2017-04-27T03:27:30.013Z,86.18
2017-04-27T03:28:31.426Z,85.99
2017-04-27T03:29:32.846Z,86.74
2017-04-27T03:30:34.263Z,87.02
2017-04-27T03:31:35.675Z,87.31
2017-04-27T03:32:37.083Z,86.55
2017-04-27T03:33:38.494Z,86.27
2017-04-27T03:34:39.905Z,85.99
2017-04-27T03:35:41.315Z,86.36
2017-04-27T03:36:42.734Z,86.27
2017-04-27T03:37:44.141Z,85.99
2017-04-27T03:38:45.987Z,86.08
2017-04-27T03:39:47.403Z,86.65
2017-04-27T03:40:48.815Z,86.65
2017-04-27T03:41:50.278Z,86.46
2017-04-27T03:42:51.698Z,86.83
2017-04-27T03:43:53.113Z,87.08
2017-04-27T03:44:54.527Z,87.93
2017-04-27T03:45:55.938Z,88.31
2017-04-27T03:46:57.353Z,88.87
2017-04-27T03:47:58.770Z,88.97
2017-04-27T03:49:00.178Z,89.16
2017-04-27T03:50:01.595Z,88.26
2017-04-27T03:51:03.005Z,87.02
2017-04-27T03:52:04.416Z,85.80
2017-04-27T03:53:05.823Z,84.94
2017-04-27T03:54:07.240Z,85.04
2017-04-27T03:55:08.644Z,86.08
2017-04-27T03:56:10.076Z,86.74
2017-04-27T03:57:11.491Z,86.18
2017-04-27T03:58:12.902Z,84.89
2017-04-27T03:59:14.323Z,84.47
2017-04-27T04:00:15.733Z,84.70
2017-04-27T04:01:17.145Z,85.32
2017-04-27T04:02:18.558Z,85.89
2017-04-27T04:03:19.971Z,87.31
2017-04-27T04:04:22.196Z,87.40
2017-04-27T04:05:23.611Z,86.74
2017-04-27T04:06:25.020Z,86.55
2017-04-27T04:07:26.430Z,87.31
2017-04-27T04:08:28.646Z,87.78
2017-04-27T04:09:30.044Z,87.12
2017-04-27T04:10:31.452Z,87.12
2017-04-27T04:11:34.569Z,86.93
2017-04-27T04:12:35.983Z,85.89
2017-04-27T04:13:37.400Z,86.03
2017-04-27T04:14:39.413Z,86.27
2017-04-27T04:15:40.825Z,87.40
2017-04-27T04:16:42.285Z,87.12
2017-04-27T04:17:43.703Z,86.36
2017-04-27T04:18:45.112Z,86.46
2017-04-27T04:19:47.393Z,87.12
2017-04-27T04:20:48.803Z,88.07
2017-04-27T04:21:50.963Z,88.35
2017-04-27T04:22:55.057Z,88.35
2017-04-27T04:23:57.334Z,87.69
2017-04-27T04:24:58.760Z,86.31
2017-04-27T04:26:00.170Z,85.74
2017-04-27T04:27:02.853Z,84.80
2017-04-27T04:28:05.045Z,84.42
2017-04-27T04:29:07.337Z,84.51
2017-04-27T04:30:08.761Z,84.51
2017-04-27T04:31:10.169Z,85.17
2017-04-27T04:32:12.321Z,85.17
2017-04-27T04:33:13.742Z,85.74
2017-04-27T04:34:15.819Z,85.46
2017-04-27T04:35:17.237Z,84.70
2017-04-27T04:36:18.650Z,86.55
2017-04-27T04:37:20.893Z,87.98
2017-04-27T04:38:22.311Z,89.39
2017-04-27T04:39:23.724Z,89.39
2017-04-27T04:40:25.134Z,88.02
2017-04-27T04:41:26.556Z,87.69
2017-04-27T04:42:28.677Z,87.88
2017-04-27T04:43:30.091Z,87.64
2017-04-27T04:44:33.258Z,86.98
2017-04-27T04:45:34.651Z,86.60
2017-04-27T04:46:36.607Z,86.98
2017-04-27T04:47:39.814Z,86.79
2017-04-27T04:48:42.760Z,86.60
2017-04-27T04:49:43.566Z,86.79
2017-04-27T04:50:45.501Z,87.16
2017-04-27T04:51:46.994Z,86.98
2017-04-27T04:52:49.251Z,86.60
2017-04-27T04:53:51.405Z,86.41
2017-04-27T04:54:53.627Z,85.41
2017-04-27T04:55:55.042Z,85.46
2017-04-27T04:56:57.354Z,86.35
2017-04-27T04:57:58.766Z,85.84
2017-04-27T04:59:00.821Z,86.31
2017-04-27T05:00:02.935Z,85.97
2017-04-27T05:01:04.353Z,86.45
2017-04-27T05:02:06.473Z,87.12
2017-04-27T05:03:07.892Z,86.07
2017-04-27T05:04:09.307Z,85.41
2017-04-27T05:05:10.722Z,85.69
2017-04-27T05:06:12.133Z,86.45
2017-04-27T05:07:13.553Z,86.60
2017-04-27T05:08:14.970Z,87.26
2017-04-27T05:09:16.391Z,87.16
2017-04-27T05:10:17.812Z,87.54
2017-04-27T05:11:20.850Z,87.73
2017-04-27T05:12:22.275Z,87.64
2017-04-27T05:13:23.695Z,86.98
2017-04-27T05:14:25.113Z,87.16
2017-04-27T05:15:26.529Z,86.45
2017-04-27T05:16:27.943Z,85.78
2017-04-27T05:17:29.362Z,85.60
2017-04-27T05:18:31.267Z,85.41
2017-04-27T05:19:32.144Z,85.31
2017-04-27T05:20:33.551Z,84.55
2017-04-27T05:21:34.975Z,84.17
2017-04-27T05:22:36.389Z,83.84
2017-04-27T05:23:37.805Z,84.41
2017-04-27T05:24:39.221Z,83.94
2017-04-27T05:25:40.641Z,83.08
2017-04-27T05:26:42.061Z,84.27
2017-04-27T05:27:43.945Z,84.59
2017-04-27T05:28:45.397Z,85.50
2017-04-27T05:29:46.771Z,85.50
2017-04-27T05:30:48.184Z,85.88
2017-04-27T05:31:49.600Z,86.16
2017-04-27T05:32:51.019Z,86.07
2017-04-27T05:33:52.434Z,86.93
2017-04-27T05:34:53.863Z,87.30
2017-04-27T05:35:55.865Z,87.40
2017-04-27T05:36:57.284Z,87.02
2017-04-27T05:37:58.772Z,87.30
2017-04-27T05:39:00.946Z,87.59
2017-04-27T05:40:02.361Z,87.77
2017-04-27T05:41:03.772Z,87.02
2017-04-27T05:42:05.196Z,87.59
2017-04-27T05:43:07.325Z,88.06
2017-04-27T05:44:10.513Z,88.25
2017-04-27T05:45:11.925Z,87.21
2017-04-27T05:46:13.340Z,86.35
2017-04-27T05:47:14.774Z,86.74
2017-04-27T05:48:16.994Z,86.16
2017-04-27T05:49:18.918Z,85.97
2017-04-27T05:50:20.334Z,86.74
2017-04-27T05:51:21.749Z,86.11
2017-04-27T05:52:23.172Z,86.45
2017-04-27T05:53:24.592Z,86.16
2017-04-27T05:54:26.016Z,86.49
2017-04-27T05:55:27.424Z,86.35
2017-04-27T05:56:29.769Z,86.74
2017-04-27T05:57:30.216Z,87.21
2017-04-27T05:58:31.642Z,86.21
2017-04-27T05:59:33.056Z,85.45
2017-04-27T06:00:35.413Z,86.59
2017-04-27T06:01:37.333Z,86.40
2017-04-27T06:02:38.757Z,86.59
2017-04-27T06:03:40.176Z,86.40
2017-04-27T06:04:41.601Z,86.78
2017-04-27T06:05:43.015Z,86.97
2017-04-27T06:06:44.435Z,86.59
2017-04-27T06:07:45.855Z,86.59
2017-04-27T06:08:47.274Z,86.59
2017-04-27T06:09:48.702Z,85.64
2017-04-27T06:10:50.123Z,85.36
2017-04-27T06:11:51.529Z,84.69
2017-04-27T06:12:52.950Z,84.88
2017-04-27T06:13:54.370Z,84.17
2017-04-27T06:14:55.789Z,83.84
2017-04-27T06:15:57.211Z,84.12
2017-04-27T06:16:58.635Z,84.36
2017-04-27T06:18:00.047Z,85.40
2017-04-27T06:19:03.100Z,84.45
2017-04-27T06:20:04.515Z,83.59
2017-04-27T06:21:05.930Z,83.69
2017-04-27T06:22:07.347Z,83.50
2017-04-27T06:23:08.765Z,83.12
2017-04-27T06:24:10.195Z,82.93
2017-04-27T06:25:11.614Z,83.12
2017-04-27T06:26:13.030Z,82.55
2017-04-27T06:27:14.442Z,82.17
2017-04-27T06:28:15.856Z,82.40
2017-04-27T06:29:17.284Z,81.07
2017-04-27T06:30:18.709Z,79.36
2017-04-27T06:31:20.129Z,78.80
2017-04-27T06:32:21.543Z,77.75
2017-04-27T06:33:22.969Z,77.84
2017-04-27T06:34:24.381Z,79.08
2017-04-27T06:35:26.322Z,78.42
2017-04-27T06:36:27.765Z,78.89
2017-04-27T06:37:29.186Z,79.65
2017-04-27T06:38:31.838Z,79.94
2017-04-27T06:39:33.266Z,79.65
2017-04-27T06:40:34.682Z,78.99
2017-04-27T06:41:36.098Z,78.51
2017-04-27T06:42:37.518Z,78.89
2017-04-27T06:43:39.705Z,78.42
2017-04-27T06:44:41.129Z,78.61
2017-04-27T06:45:42.549Z,78.23
2017-04-27T06:46:43.972Z,77.66
2017-04-27T06:47:45.387Z,78.32
2017-04-27T06:48:46.806Z,78.13
2017-04-27T06:49:48.228Z,78.42
2017-04-27T06:50:49.647Z,79.12
2017-04-27T06:51:51.066Z,79.41
2017-04-27T06:52:52.483Z,77.70
2017-04-27T06:53:53.906Z,76.27
2017-04-27T06:54:55.324Z,76.46
2017-04-27T06:55:56.740Z,77.51
2017-04-27T06:56:58.157Z,78.83
2017-04-27T06:57:59.575Z,77.51
2017-04-27T06:59:01.910Z,77.98
2017-04-27T07:00:03.328Z,78.32
2017-04-27T07:01:04.740Z,77.94
2017-04-27T07:02:06.168Z,77.66
2017-04-27T07:03:07.589Z,77.31
2017-04-27T07:04:09.010Z,76.75
2017-04-27T07:05:10.428Z,77.41
2017-04-27T07:06:11.851Z,77.03
2017-04-27T07:07:13.268Z,77.28
2017-04-27T07:08:14.685Z,77.70
2017-04-27T07:09:16.116Z,77.60
2017-04-27T07:10:17.535Z,77.12
2017-04-27T07:11:18.957Z,77.31
2017-04-27T07:12:20.459Z,75.99
2017-04-27T07:13:21.875Z,75.99
2017-04-27T07:14:23.296Z,73.80
2017-04-27T07:15:24.721Z,73.84
2017-04-27T07:16:26.231Z,74.37
2017-04-27T07:17:27.653Z,75.07
2017-04-27T07:18:29.106Z,73.99
2017-04-27T07:19:30.501Z,73.42
2017-04-27T07:20:31.916Z,74.18
2017-04-27T07:21:33.341Z,73.65
2017-04-27T07:22:34.762Z,73.55
2017-04-27T07:23:36.959Z,72.22
2017-04-27T07:24:38.377Z,72.41
2017-04-27T07:25:39.803Z,70.32
2017-04-27T07:26:41.218Z,70.13
2017-04-27T07:27:42.639Z,70.89
2017-04-27T07:28:44.050Z,72.99
2017-04-27T07:29:45.468Z,72.41
2017-04-27T07:30:46.898Z,70.70
2017-04-27T07:31:48.309Z,71.75
2017-04-27T07:32:49.743Z,70.42
2017-04-27T07:33:51.164Z,71.66
2017-04-27T07:34:52.579Z,69.94
2017-04-27T07:35:54.000Z,69.66
2017-04-27T07:36:55.417Z,68.99
2017-04-27T07:37:56.843Z,69.18
2017-04-27T07:38:58.271Z,69.37
2017-04-27T07:39:59.684Z,70.42
2017-04-27T07:41:01.125Z,70.70
2017-04-27T07:42:02.550Z,69.56
2017-04-27T07:43:03.969Z,68.90
2017-04-27T07:44:05.385Z,69.02
2017-04-27T07:45:06.815Z,68.65
2017-04-27T07:46:08.232Z,68.17
2017-04-27T07:47:09.659Z,67.60
2017-04-27T07:48:11.082Z,67.66
2017-04-27T07:49:12.497Z,68.17
2017-04-27T07:50:13.930Z,68.74
2017-04-27T07:51:15.352Z,68.40
2017-04-27T07:52:16.791Z,65.16
2017-04-27T07:53:18.209Z,67.63
2017-04-27T07:54:19.630Z,68.05
2017-04-27T07:55:21.061Z,66.72
2017-04-27T07:56:22.477Z,64.72
2017-04-27T07:57:23.911Z,63.01
2017-04-27T07:58:25.334Z,63.10
2017-04-27T07:59:26.770Z,62.34
2017-04-27T08:00:28.297Z,63.86
2017-04-27T08:01:29.720Z,62.91
2017-04-27T08:02:31.141Z,63.26
2017-04-27T08:03:32.573Z,61.48
2017-04-27T08:04:33.992Z,61.48
2017-04-27T08:05:35.415Z,61.58
2017-04-27T08:06:36.833Z,63.48
2017-04-27T08:07:38.265Z,63.10
2017-04-27T08:08:39.690Z,62.81
2017-04-27T08:09:41.110Z,63.51
2017-04-27T08:10:42.544Z,61.80
2017-04-27T08:11:43.972Z,60.05
2017-04-27T08:12:45.388Z,62.81
2017-04-27T08:13:46.809Z,62.15
2017-04-27T08:14:48.243Z,60.53
2017-04-27T08:15:49.669Z,61.29
2017-04-27T08:16:51.087Z,60.05
2017-04-27T08:17:52.511Z,60.15
2017-04-27T08:18:53.930Z,63.07
2017-04-27T08:19:55.350Z,63.07
2017-04-27T08:20:56.770Z,63.73
2017-04-27T08:21:58.196Z,63.92
2017-04-27T08:22:59.616Z,64.02
2017-04-27T08:24:01.038Z,63.07
2017-04-27T08:25:02.457Z,61.74
2017-04-27T08:26:03.877Z,58.91
2017-04-27T08:27:05.298Z,58.81
2017-04-27T08:28:06.720Z,56.72
2017-04-27T08:29:08.150Z,57.45
2017-04-27T08:30:09.577Z,57.39
2017-04-27T08:31:10.999Z,55.68
2017-04-27T08:32:12.421Z,55.42
2017-04-27T08:33:13.848Z,56.46
2017-04-27T08:34:15.275Z,53.04
2017-04-27T08:35:16.691Z,50.85
2017-04-27T08:36:18.123Z,51.39
2017-04-27T08:37:19.554Z,52.94
2017-04-27T08:38:20.997Z,53.23
2017-04-27T08:39:22.421Z,52.78
2017-04-27T08:40:23.856Z,51.92
2017-04-27T08:41:25.275Z,52.37
2017-04-27T08:42:26.711Z,52.09
2017-04-27T08:43:28.135Z,52.75
2017-04-27T08:44:29.568Z,52.28
2017-04-27T08:45:30.997Z,53.13
2017-04-27T08:46:32.415Z,53.54
2017-04-27T08:47:33.842Z,51.25
2017-04-27T08:48:35.278Z,52.97
2017-04-27T08:49:36.705Z,50.97
2017-04-27T08:50:38.124Z,49.73
2017-04-27T08:51:39.546Z,52.40
2017-04-27T08:52:41.013Z,55.26
2017-04-27T08:53:42.438Z,55.04
2017-04-27T08:54:43.859Z,54.66
2017-04-27T08:55:45.282Z,54.66
2017-04-27T08:56:46.718Z,53.04
2017-04-27T08:57:48.148Z,52.56
2017-04-27T08:58:49.577Z,53.52
2017-04-27T08:59:51.004Z,53.25
2017-04-27T09:00:52.452Z,53.25
2017-04-27T09:01:53.884Z,51.54
2017-04-27T09:02:55.303Z,51.06
2017-04-27T09:03:56.734Z,50.49
2017-04-27T09:04:58.161Z,50.78
2017-04-27T09:05:59.590Z,49.44
2017-04-27T09:07:01.016Z,49.73
2017-04-27T09:08:02.441Z,49.61
2017-04-27T09:09:03.869Z,51.51
2017-04-27T09:10:05.300Z,52.84
2017-04-27T09:11:06.728Z,52.84
2017-04-27T09:12:08.152Z,51.42
2017-04-27T09:13:09.570Z,51.51
2017-04-27T09:14:10.991Z,52.82
2017-04-27T09:15:12.407Z,52.25
2017-04-27T09:16:13.833Z,51.97
2017-04-27T09:17:15.255Z,51.78
2017-04-27T09:18:16.682Z,51.20
2017-04-27T09:19:18.100Z,51.87
2017-04-27T09:20:19.521Z,50.42
2017-04-27T09:21:20.946Z,48.80
2017-04-27T09:22:22.374Z,47.18
2017-04-27T09:23:23.789Z,46.80
2017-04-27T09:24:25.215Z,49.01
2017-04-27T09:25:26.635Z,49.77
2017-04-27T09:26:28.060Z,49.11
2017-04-27T09:27:29.482Z,47.71
2017-04-27T09:28:30.904Z,46.28
2017-04-27T09:29:32.322Z,44.75
2017-04-27T09:30:33.744Z,42.68
2017-04-27T09:31:35.181Z,45.35
2017-04-27T09:32:36.593Z,43.82
2017-04-27T09:33:38.027Z,42.68
2017-04-27T09:34:39.449Z,40.30
2017-04-27T09:35:40.885Z,39.94
2017-04-27T09:36:42.314Z,39.84
2017-04-27T09:37:43.737Z,41.08
2017-04-27T09:38:45.172Z,42.22
2017-04-27T09:39:46.599Z,42.03
2017-04-27T09:40:48.028Z,41.65
2017-04-27T09:41:49.454Z,41.75
2017-04-27T09:42:50.876Z,42.63
2017-04-27T09:43:52.303Z,44.32
2017-04-27T09:44:53.738Z,45.28
2017-04-27T09:45:55.157Z,46.80
2017-04-27T09:46:56.588Z,47.82
2017-04-27T09:47:58.018Z,47.28
2017-04-27T09:48:59.441Z,48.68
2017-04-27T09:50:00.880Z,50.30
2017-04-27T09:51:02.340Z,49.44
2017-04-27T09:52:03.770Z,50.42
2017-04-27T09:53:05.194Z,49.06
2017-04-27T09:54:06.625Z,48.11
2017-04-27T09:55:08.049Z,48.87
2017-04-27T09:56:09.466Z,48.02
2017-04-27T09:57:10.896Z,49.06
2017-04-27T09:58:12.321Z,47.82
2017-04-27T09:59:13.751Z,48.78
2017-04-27T10:00:15.825Z,49.54
2017-04-27T10:01:16.551Z,50.40
2017-04-27T10:02:17.998Z,50.49
2017-04-27T10:03:19.409Z,46.87
2017-04-27T10:04:20.834Z,47.92
2017-04-27T10:05:22.260Z,47.75
2017-04-27T10:06:23.686Z,47.54
2017-04-27T10:07:25.112Z,46.42
2017-04-27T10:08:26.535Z,44.70
2017-04-27T10:09:27.949Z,45.37
2017-04-27T10:10:29.382Z,43.82
2017-04-27T10:11:30.806Z,43.94
2017-04-27T10:12:32.226Z,42.22
2017-04-27T10:13:33.652Z,40.32
2017-04-27T10:14:35.077Z,41.00
2017-04-27T10:15:36.503Z,41.39
2017-04-27T10:16:37.928Z,41.96
2017-04-27T10:17:39.349Z,41.20
2017-04-27T10:18:40.774Z,41.10
2017-04-27T10:19:42.196Z,41.22
2017-04-27T10:20:43.620Z,40.57
2017-04-27T10:21:45.054Z,39.98
2017-04-27T10:22:46.478Z,39.59
2017-04-27T10:23:47.901Z,40.64
2017-04-27T10:24:49.325Z,39.02
2017-04-27T10:25:50.762Z,39.95
2017-04-27T10:26:52.195Z,41.67
2017-04-27T10:27:53.621Z,41.67
2017-04-27T10:28:55.037Z,41.20
2017-04-27T10:29:56.465Z,41.58
2017-04-27T10:30:57.887Z,44.42
2017-04-27T10:31:59.316Z,44.60
2017-04-27T10:33:00.743Z,44.04
2017-04-27T10:34:02.182Z,43.84
2017-04-27T10:35:03.606Z,45.54
2017-04-27T10:36:05.034Z,46.20
2017-04-27T10:37:06.490Z,45.25
2017-04-27T10:38:07.915Z,44.78
2017-04-27T10:39:09.339Z,44.87
2017-04-27T10:40:10.765Z,46.11
2017-04-27T10:41:12.190Z,46.78
2017-04-27T10:42:13.616Z,46.68
2017-04-27T10:43:15.053Z,45.35
2017-04-27T10:44:16.469Z,45.25
2017-04-27T10:45:17.889Z,46.20
2017-04-27T10:46:19.313Z,46.11
2017-04-27T10:47:20.745Z,45.25
2017-04-27T10:48:22.224Z,46.49
2017-04-27T10:49:23.657Z,47.08
2017-04-27T10:50:25.092Z,46.13
2017-04-27T10:51:26.519Z,45.47
2017-04-27T10:52:27.944Z,44.06
2017-04-27T10:53:29.365Z,43.87
2017-04-27T10:54:30.800Z,44.44
2017-04-27T10:55:32.229Z,45.58
2017-04-27T10:56:33.653Z,44.44
2017-04-27T10:57:35.078Z,44.80
2017-04-27T10:58:36.508Z,45.35
2017-04-27T10:59:37.937Z,47.34
2017-04-27T11:00:39.359Z,47.85
2017-04-27T11:01:40.779Z,45.37
2017-04-27T11:02:42.204Z,42.51
2017-04-27T11:03:43.632Z,42.44
2017-04-27T11:04:45.069Z,42.80
2017-04-27T11:05:46.501Z,43.94
2017-04-27T11:06:47.924Z,45.18
2017-04-27T11:07:49.354Z,44.89
2017-04-27T11:08:50.781Z,45.29
2017-04-27T11:09:52.202Z,44.34
2017-04-27T11:10:53.627Z,44.15
2017-04-27T11:11:55.047Z,44.73
2017-04-27T11:12:56.471Z,44.53
2017-04-27T11:13:57.903Z,43.20
2017-04-27T11:14:59.328Z,43.77
2017-04-27T11:16:00.752Z,43.77
2017-04-27T11:17:02.173Z,42.63
2017-04-27T11:18:03.593Z,43.87
2017-04-27T11:19:05.016Z,44.44
2017-04-27T11:20:06.439Z,45.29
2017-04-27T11:21:07.862Z,43.87
2017-04-27T11:22:09.292Z,42.63
2017-04-27T11:23:10.711Z,43.49
2017-04-27T11:24:12.142Z,43.94
2017-04-27T11:25:13.568Z,39.56
2017-04-27T11:26:14.993Z,39.95
2017-04-27T11:27:16.416Z,39.00
2017-04-27T11:28:17.841Z,39.94
2017-04-27T11:29:19.268Z,41.39
2017-04-27T11:30:20.693Z,41.10
2017-04-27T11:31:22.125Z,40.07
2017-04-27T11:32:23.550Z,38.91
2017-04-27T11:33:24.968Z,39.00
2017-04-27T11:34:26.396Z,39.88
2017-04-27T11:35:27.818Z,40.55
2017-04-27T11:36:29.241Z,41.62
2017-04-27T11:37:30.666Z,39.81
2017-04-27T11:39:04.010Z,37.88
2017-04-27T11:39:33.467Z,39.14
2017-04-27T11:40:34.895Z,38.85
2017-04-27T11:41:36.322Z,34.75
2017-04-27T11:42:37.755Z,36.16
2017-04-27T11:43:39.186Z,36.73
2017-04-27T11:44:40.612Z,36.25
2017-04-27T11:45:42.043Z,37.32
2017-04-27T11:46:43.467Z,34.63
2017-04-27T11:47:44.976Z,35.89
2017-04-27T11:48:46.491Z,36.29
2017-04-27T11:49:47.910Z,34.77
2017-04-27T11:50:49.334Z,33.71
2017-04-27T11:51:50.758Z,34.59
2017-04-27T11:52:52.191Z,36.02
2017-04-27T11:53:53.620Z,34.67
2017-04-27T11:54:55.065Z,35.55
2017-04-27T11:55:56.483Z,34.69
2017-04-27T11:56:57.909Z,34.80
2017-04-27T11:58:00.053Z,33.84
2017-04-27T11:59:01.472Z,33.84
2017-04-27T12:00:02.899Z,33.56
2017-04-27T12:01:04.338Z,36.02
2017-04-27T12:02:05.762Z,34.95
2017-04-27T12:03:07.185Z,34.86
2017-04-27T12:04:08.610Z,36.66
2017-04-27T12:05:10.048Z,37.24
2017-04-27T12:06:11.475Z,36.94
2017-04-27T12:07:12.907Z,38.09
2017-04-27T12:08:14.334Z,37.90
2017-04-27T12:09:15.773Z,40.57
2017-04-27T12:10:17.197Z,38.56
2017-04-27T12:11:18.619Z,37.02
2017-04-27T12:12:20.048Z,37.68
2017-04-27T12:13:21.475Z,36.66
2017-04-27T12:14:22.906Z,36.00
2017-04-27T12:15:24.330Z,36.02
2017-04-27T12:16:25.755Z,36.43
2017-04-27T12:17:27.180Z,38.54
2017-04-27T12:18:28.607Z,34.81
2017-04-27T12:19:30.048Z,34.74
2017-04-27T12:20:31.477Z,32.54
2017-04-27T12:21:32.896Z,32.63
2017-04-27T12:22:34.335Z,32.54
2017-04-27T12:23:35.761Z,30.43
2017-04-27T12:24:37.197Z,31.47
2017-04-27T12:25:38.624Z,32.90
2017-04-27T12:26:40.051Z,31.95
2017-04-27T12:27:41.481Z,31.56
2017-04-27T12:28:42.915Z,33.00
2017-04-27T12:29:44.350Z,33.97
2017-04-27T12:30:45.781Z,32.63
2017-04-27T12:31:47.204Z,31.66
2017-04-27T12:32:48.626Z,32.50
2017-04-27T12:33:50.057Z,33.84
2017-04-27T12:34:51.487Z,33.36
2017-04-27T12:35:52.909Z,34.99
2017-04-27T12:36:54.377Z,34.70
2017-04-27T12:37:55.805Z,34.78
2017-04-27T12:38:57.235Z,36.87
2017-04-27T12:39:58.667Z,36.85
2017-04-27T12:41:00.094Z,37.61
2017-04-27T12:42:01.518Z,37.59
2017-04-27T12:43:02.954Z,38.76
2017-04-27T12:44:04.428Z,39.81
2017-04-27T12:45:05.856Z,38.66
2017-04-27T12:46:07.287Z,38.26
2017-04-27T12:47:08.709Z,38.66
2017-04-27T12:48:10.137Z,38.17
2017-04-27T12:49:11.574Z,36.81
2017-04-27T12:50:13.001Z,37.00
2017-04-27T12:51:14.510Z,37.48
2017-04-27T12:52:15.930Z,37.48
2017-04-27T12:53:17.377Z,36.81
2017-04-27T12:54:18.808Z,36.71
2017-04-27T12:55:20.233Z,37.10
2017-04-27T12:56:21.665Z,36.83
2017-04-27T12:57:23.088Z,37.12
2017-04-27T12:58:24.508Z,35.02
2017-04-27T12:59:25.943Z,36.16
2017-04-27T13:00:27.363Z,35.47
2017-04-27T13:01:28.788Z,35.97
2017-04-27T13:02:30.218Z,38.64
2017-04-27T13:03:31.642Z,38.64
2017-04-27T13:04:33.070Z,36.52
2017-04-27T13:05:34.509Z,34.92
2017-04-27T13:06:35.933Z,37.12
2017-04-27T13:07:37.361Z,36.64
2017-04-27T13:08:38.787Z,36.73
2017-04-27T13:09:40.218Z,39.69
2017-04-27T13:10:41.645Z,38.15
2017-04-27T13:11:43.069Z,37.02
2017-04-27T13:12:44.501Z,36.64
2017-04-27T13:13:45.937Z,37.68